| time (UTC) | temp F | wind direction | speed knots | gust knots | rain 1hr in | rain 24hr in | rain mn in | humidity % | barometer mb |
| 20260906160016 | 74 | 0.0 | 3.5 | 0.00 | 0.01 | 0.00 | 65 | 1019.9 | |
| 20260906153036 | 71 | 0.0 | 2.6 | 0.00 | 0.01 | 0.00 | 71 | 1019.9 | |
| 20260906150015 | 70 | 0.0 | 2.6 | 0.00 | 0.01 | 0.00 | 75 | 1020.0 | |
| 20260906143015 | 67 | 0.0 | 0.9 | 0.00 | 0.01 | 0.00 | 77 | 1020.0 | |
| 20260906140035 | 65 | 0.0 | 0.0 | 0.00 | 0.01 | 0.00 | 78 | 1020.2 | |
| 20260906133016 | 61 | 0.0 | 0.9 | 0.00 | 0.01 | 0.00 | 78 | 1020.0 | |
| 20260906130015 | 59 | 0.0 | 0.9 | 0.00 | 0.01 | 0.00 | 77 | 1019.5 | |
| 20260906123016 | 58 | 0.0 | 0.0 | 0.00 | 0.01 | 0.00 | 77 | 1019.2 | |
| 20260906120015 | 57 | 0.0 | 0.0 | 0.00 | 0.01 | 0.00 | 77 | 1019.1 | |
| 20260906113016 | 57 | 0.0 | 0.9 | 0.00 | 0.01 | 0.00 | 77 | 1019.0 | |
| 20260906110016 | 57 | 0.0 | 0.0 | 0.00 | 0.01 | 0.00 | 77 | 1018.7 | |
| 20260906103015 | 57 | 0.0 | 0.0 | 0.00 | 0.01 | 0.00 | 77 | 1018.7 | |
| 20260906100016 | 57 | 0.0 | 0.0 | 0.00 | 0.01 | 0.00 | 77 | 1018.5 | |
| 20260906093015 | 57 | 0.0 | 0.0 | 0.00 | 0.01 | 0.00 | 78 | 1018.7 | |
| 20260906090016 | 58 | 0.0 | 0.0 | 0.00 | 0.01 | 0.00 | 77 | 1018.6 | |
| 20260906083016 | 58 | 0.0 | 0.0 | 0.00 | 0.01 | 0.00 | 77 | 1018.6 | |
| 20260906080015 | 59 | 0.0 | 0.0 | 0.00 | 0.01 | 0.00 | 77 | 1018.6 | |
| 20260906073015 | 59 | 0.0 | 0.0 | 0.00 | 0.01 | 0.00 | 77 | 1018.2 | |
| 20260906070056 | 59 | 0.0 | 0.0 | 0.00 | 0.01 | 0.00 | 78 | 1018.2 | |
| 20260906063015 | 60 | 0.0 | 0.0 | 0.00 | 0.01 | 0.00 | 77 | 1018.6 | |
| 20260906060016 | 60 | 0.0 | 0.0 | 0.00 | 0.01 | 0.00 | 78 | 1018.2 | |
| 20260906053015 | 60 | 0.0 | 0.0 | 0.00 | 0.01 | 0.00 | 78 | 1018.0 | |
| 20260906050036 | 61 | 0.0 | 0.0 | 0.00 | 0.01 | 0.01 | 78 | 1017.6 | |
| 20260906043016 | 61 | 0.0 | 0.0 | 0.00 | 0.01 | 0.01 | 78 | 1017.2 | |
| 20260906040015 | 61 | 0.0 | 0.0 | 0.00 | 0.01 | 0.01 | 79 | 1017.1 | |
| 20260906033016 | 61 | 0.0 | 0.0 | 0.00 | 0.01 | 0.01 | 79 | 1017.1 | |
| 20260906030016 | 62 | 0.0 | 0.0 | 0.00 | 0.01 | 0.01 | 79 | 1016.8 | |
| 20260906023056 | 63 | 0.0 | 0.0 | 0.00 | 0.01 | 0.01 | 79 | 1016.7 | |
| 20260906020016 | 64 | 0.0 | 0.0 | 0.00 | 0.01 | 0.01 | 78 | 1016.4 | |
| 20260906013015 | 65 | 0.0 | 0.0 | 0.00 | 0.01 | 0.01 | 78 | 1016.3 | |
| 20260906010016 | 67 | 0.0 | 0.0 | 0.00 | 0.01 | 0.01 | 77 | 1016.2 | |
| 20260906003016 | 68 | 0.0 | 0.0 | 0.00 | 0.01 | 0.01 | 77 | 1015.9 | |
| 20260906000016 | 70 | 0.0 | 0.9 | 0.00 | 0.01 | 0.01 | 75 | 1016.0 | |
| 20260905233036 | 72 | 0.0 | 0.9 | 0.00 | 0.01 | 0.01 | 74 | 1016.0 | |
| 20260905230036 | 74 | 0.0 | 0.9 | 0.00 | 0.01 | 0.01 | 71 | 1016.2 | |
| 20260905223016 | 75 | 0.0 | 1.7 | 0.00 | 0.01 | 0.01 | 70 | 1016.2 | |
| 20260905220016 | 76 | 0.0 | 1.7 | 0.00 | 0.01 | 0.01 | 68 | 1016.3 | |
| 20260905213015 | 76 | 0.0 | 3.5 | 0.00 | 0.01 | 0.01 | 70 | 1016.4 | |
| 20260905210016 | 75 | 0.0 | 1.7 | 0.00 | 0.01 | 0.01 | 71 | 1016.3 | |
| 20260905203036 | 77 | 315 | 0.9 | 5.2 | 0.00 | 0.01 | 0.01 | 63 | 1016.3 |
| 20260905200016 | 77 | 203 | 0.9 | 6.1 | 0.00 | 0.01 | 0.01 | 64 | 1016.4 |
| 20260905193036 | 75 | 0.0 | 4.3 | 0.00 | 0.01 | 0.01 | 67 | 1016.3 | |
| 20260905190016 | 74 | 338 | 0.9 | 6.1 | 0.00 | 0.01 | 0.01 | 68 | 1016.6 |
| 20260905183035 | 75 | 0.0 | 5.2 | 0.00 | 0.01 | 0.01 | 67 | 1016.8 | |
| 20260905180016 | 75 | 338 | 0.9 | 4.3 | 0.00 | 0.01 | 0.01 | 69 | 1016.7 |
| 20260905173016 | 74 | 338 | 0.9 | 4.3 | 0.00 | 0.01 | 0.01 | 71 | 1016.7 |
| 20260905170016 | 74 | 315 | 0.9 | 5.2 | 0.01 | 0.01 | 0.01 | 72 | 1017.3 |
| 20260905163015 | 72 | 203 | 0.9 | 6.1 | 0.01 | 0.01 | 0.01 | 73 | 1017.3 |